Search for airport 
image banner adimage banner adimage banner ad
image banner ad

4CL1 - Lyon

Located in Rancho Santa Margarita, United States

ICAO - 4CL1, IATA -

Data provided by Airmate  

General information

Coordinates: N33°36'46" W117°35'29"
Elevation is 898 feet MSL.
Magnetic variation is 14° East
View others Airports in California

Operational data

Special qualification required
Current time UTC:
Current local time:
METAR: KSNA 260953Z AUTO 25003KT 10SM OVC012 19/14 A3000 RMK AO2 SLP159 T01940144 $
TAF: KSNA 260520Z 2606/2706 VRB04KT P6SM OVC010 FM261500 VRB04KT P6SM OVC014 FM261900 22009KT P6SM SCT015 SCT150 FM270300 22005KT P6SM SCT015 SCT120
View NOTAMs / SUP AIP / TFR affecting this airport [VIEW]
Communications frequencies: [VIEW]

Runways:

Airport contact information

Address: Rancho Santa Margarita United States

Satellite view of 4CL1